createdAt,value
2019-05-11T00:00:22.431Z,9.20
2019-05-11T00:02:54.251Z,10.03
2019-05-11T00:05:26.036Z,9.63
2019-05-11T00:07:57.828Z,10.17
2019-05-11T00:10:29.516Z,10.30
2019-05-11T00:13:01.267Z,9.77
2019-05-11T00:15:33.095Z,9.77
2019-05-11T00:18:04.891Z,9.80
2019-05-11T00:20:36.641Z,9.90
2019-05-11T00:23:08.333Z,10.37
2019-05-11T00:25:40.060Z,10.13
2019-05-11T00:28:11.789Z,10.93
2019-05-11T00:30:44.645Z,11.10
2019-05-11T00:33:16.412Z,11.67
2019-05-11T00:35:48.226Z,10.93
2019-05-11T00:38:20.023Z,10.33
2019-05-11T00:40:51.759Z,10.13
2019-05-11T00:43:23.451Z,11.53
2019-05-11T00:45:55.242Z,11.20
2019-05-11T00:48:26.975Z,11.27
2019-05-11T00:50:58.710Z,10.80
2019-05-11T00:53:30.393Z,11.17
2019-05-11T00:56:02.154Z,11.17
2019-05-11T00:58:33.838Z,10.90
2019-05-11T01:01:05.586Z,11.37
2019-05-11T01:03:37.263Z,11.43
2019-05-11T01:06:08.984Z,10.03
2019-05-11T01:08:40.772Z,10.77
2019-05-11T01:11:12.502Z,11.40
2019-05-11T01:13:44.158Z,10.27
2019-05-11T01:16:15.859Z,11.17
2019-05-11T01:18:47.651Z,11.73
2019-05-11T01:21:19.401Z,11.87
2019-05-11T01:23:51.076Z,10.87
2019-05-11T01:26:22.892Z,11.47
2019-05-11T01:28:54.619Z,11.03
2019-05-11T01:31:26.343Z,11.87
2019-05-11T01:33:58.041Z,11.57
2019-05-11T01:36:29.755Z,11.10
2019-05-11T01:39:01.441Z,10.97
2019-05-11T01:41:33.135Z,11.20
2019-05-11T01:44:04.993Z,11.10
2019-05-11T01:46:36.897Z,11.80
2019-05-11T01:49:08.628Z,10.70
2019-05-11T01:51:40.296Z,11.00
2019-05-11T01:54:12.118Z,11.20
2019-05-11T01:56:43.837Z,12.67
2019-05-11T01:59:15.554Z,11.67
2019-05-11T02:01:47.269Z,12.77
2019-05-11T02:04:19.025Z,12.27
2019-05-11T02:06:50.705Z,12.03
2019-05-11T02:09:22.562Z,11.37
2019-05-11T02:11:54.415Z,12.10
2019-05-11T02:14:26.119Z,12.17
2019-05-11T02:16:57.847Z,11.63
2019-05-11T02:19:29.453Z,11.13
2019-05-11T02:22:01.150Z,11.13
2019-05-11T02:24:32.841Z,11.60
2019-05-11T02:27:04.557Z,10.63
2019-05-11T02:29:36.258Z,10.87
2019-05-11T02:32:08.119Z,10.77
2019-05-11T02:34:39.888Z,10.13
2019-05-11T02:37:13.480Z,10.83
2019-05-11T02:39:45.206Z,11.27
2019-05-11T02:42:16.943Z,10.93
2019-05-11T02:44:48.686Z,11.67
2019-05-11T02:47:20.470Z,11.80
2019-05-11T02:49:52.175Z,12.07
2019-05-11T02:52:25.351Z,13.23
2019-05-11T02:55:00.065Z,12.70
2019-05-11T02:57:31.749Z,13.37
2019-05-11T03:00:03.522Z,12.37
2019-05-11T03:02:35.222Z,13.80
2019-05-11T03:05:08.613Z,13.87
2019-05-11T03:07:40.335Z,13.70
2019-05-11T03:10:12.028Z,13.50
2019-05-11T03:12:44.080Z,12.93
2019-05-11T03:15:17.329Z,14.50
2019-05-11T03:17:49.018Z,12.70
2019-05-11T03:20:20.709Z,13.17
2019-05-11T03:22:52.377Z,14.20
2019-05-11T03:25:24.012Z,13.70
2019-05-11T03:27:55.702Z,13.17
2019-05-11T03:30:28.208Z,13.60
2019-05-11T03:32:59.976Z,13.53
2019-05-11T03:35:31.658Z,12.70
2019-05-11T03:38:03.321Z,15.20
2019-05-11T03:40:35.151Z,13.17
2019-05-11T03:43:06.968Z,12.43
2019-05-11T03:45:38.670Z,13.43
2019-05-11T03:48:10.388Z,13.83
2019-05-11T03:50:42.304Z,13.77
2019-05-11T03:53:13.993Z,12.73
2019-05-11T03:55:45.783Z,13.40
2019-05-11T03:58:17.490Z,13.77
2019-05-11T04:00:49.170Z,13.93
2019-05-11T04:03:20.838Z,13.47
2019-05-11T04:05:52.525Z,14.03
2019-05-11T04:08:24.324Z,14.50
2019-05-11T04:10:56.021Z,13.53
2019-05-11T04:13:28.120Z,14.03
2019-05-11T04:15:59.852Z,14.50
2019-05-11T04:18:31.524Z,14.50
2019-05-11T04:21:03.216Z,13.50
2019-05-11T04:23:35.007Z,13.87
2019-05-11T04:26:06.700Z,14.43
2019-05-11T04:28:38.400Z,14.83
2019-05-11T04:31:10.067Z,14.50
2019-05-11T04:33:41.726Z,15.97
2019-05-11T04:36:13.407Z,16.30
2019-05-11T04:38:45.124Z,16.63
2019-05-11T04:41:16.856Z,17.43
2019-05-11T04:43:48.536Z,16.83
2019-05-11T04:46:20.167Z,16.30
2019-05-11T04:48:51.911Z,15.17
2019-05-11T04:51:23.577Z,14.17
2019-05-11T04:53:55.214Z,14.63
2019-05-11T04:56:26.926Z,14.93
2019-05-11T04:59:00.061Z,14.00
2019-05-11T05:01:31.789Z,14.57
2019-05-11T05:04:13.366Z,14.90
2019-05-11T05:06:38.951Z,15.27
2019-05-11T05:09:10.331Z,16.60
2019-05-11T05:11:42.063Z,16.80
2019-05-11T05:14:13.840Z,16.47
2019-05-11T05:16:45.517Z,16.03
2019-05-11T05:19:17.212Z,17.57
2019-05-11T05:21:48.936Z,17.13
2019-05-11T05:24:20.610Z,16.60
2019-05-11T05:26:52.457Z,16.30
2019-05-11T05:29:24.149Z,16.67
2019-05-11T05:31:55.868Z,16.00
2019-05-11T05:34:27.598Z,17.23
2019-05-11T05:36:59.266Z,16.13
2019-05-11T05:39:31.004Z,16.47
2019-05-11T05:42:02.686Z,16.50
2019-05-11T05:44:35.667Z,17.17
2019-05-11T05:47:07.363Z,17.00
2019-05-11T05:49:39.078Z,17.10
2019-05-11T05:52:10.817Z,18.27
2019-05-11T05:54:44.085Z,16.90
2019-05-11T05:57:15.779Z,17.40
2019-05-11T05:59:47.474Z,18.47
2019-05-11T06:02:19.212Z,19.20
2019-05-11T06:04:50.931Z,22.97
2019-05-11T06:07:22.625Z,22.77
2019-05-11T06:09:54.311Z,24.37
2019-05-11T06:12:25.968Z,24.17
2019-05-11T06:14:57.682Z,25.20
2019-05-11T06:17:29.359Z,23.83
2019-05-11T06:20:01.570Z,25.33
2019-05-11T06:22:33.668Z,26.97
2019-05-11T06:25:05.656Z,25.07
2019-05-11T06:27:37.428Z,26.30
2019-05-11T06:30:09.691Z,25.63
2019-05-11T06:32:41.381Z,25.93
2019-05-11T06:35:13.114Z,26.87
2019-05-11T06:37:44.798Z,26.00
2019-05-11T06:40:16.790Z,25.47
2019-05-11T06:42:48.499Z,25.33
2019-05-11T06:45:20.228Z,25.63
2019-05-11T06:47:52.056Z,24.23
2019-05-11T06:50:23.744Z,24.30
2019-05-11T06:52:55.549Z,24.00
2019-05-11T06:55:27.547Z,24.67
2019-05-11T06:57:59.279Z,24.37
2019-05-11T07:00:31.005Z,23.70
2019-05-11T07:03:02.762Z,23.53
2019-05-11T07:05:34.460Z,22.53
2019-05-11T07:08:06.148Z,23.73
2019-05-11T07:10:37.871Z,23.37
2019-05-11T07:13:09.531Z,24.43
2019-05-11T07:15:41.290Z,24.90
2019-05-11T07:18:13.146Z,24.00
2019-05-11T07:20:50.547Z,22.47
2019-05-11T07:23:18.338Z,24.00
2019-05-11T07:25:50.054Z,23.23
2019-05-11T07:28:21.810Z,23.53
2019-05-11T07:30:53.568Z,23.93
2019-05-11T07:33:25.300Z,23.73
2019-05-11T07:35:58.379Z,22.77
2019-05-11T07:38:30.132Z,24.33
2019-05-11T07:41:01.906Z,23.10
2019-05-11T07:43:33.587Z,23.53
2019-05-11T07:46:07.739Z,24.57
2019-05-11T07:48:39.023Z,23.37
2019-05-11T07:51:10.752Z,23.50
2019-05-11T07:53:43.732Z,25.50
2019-05-11T07:56:15.471Z,24.10
2019-05-11T07:58:48.128Z,23.90
2019-05-11T08:01:20.013Z,23.87
2019-05-11T08:03:51.713Z,25.77
2019-05-11T08:06:23.480Z,24.57
2019-05-11T08:08:55.228Z,24.43
2019-05-11T08:11:30.736Z,23.50
2019-05-11T08:14:00.424Z,22.93
2019-05-11T08:16:32.371Z,22.47
2019-05-11T08:19:07.063Z,20.03
2019-05-11T08:21:38.850Z,18.37
2019-05-11T08:24:10.836Z,18.10
2019-05-11T08:26:42.533Z,18.67
2019-05-11T08:29:15.483Z,17.73
2019-05-11T08:31:48.803Z,18.23
2019-05-11T08:34:20.776Z,18.17
2019-05-11T08:36:52.599Z,17.07
2019-05-11T08:39:24.346Z,17.10
2019-05-11T08:41:56.066Z,16.60
2019-05-11T08:44:28.787Z,17.87
2019-05-11T08:47:00.747Z,17.33
2019-05-11T08:49:32.512Z,16.13
2019-05-11T08:52:04.186Z,17.97
2019-05-11T08:54:38.018Z,18.23
2019-05-11T08:57:09.406Z,16.27
2019-05-11T08:59:41.128Z,15.70
2019-05-11T09:02:12.832Z,16.13
2019-05-11T09:04:48.176Z,15.20
2019-05-11T09:07:19.353Z,15.80
2019-05-11T09:09:51.137Z,14.37
2019-05-11T09:12:22.813Z,15.20
2019-05-11T09:14:54.637Z,14.20
2019-05-11T09:17:28.700Z,14.00
2019-05-11T09:19:59.908Z,14.27
2019-05-11T09:22:31.614Z,14.20
2019-05-11T09:25:03.374Z,14.80
2019-05-11T09:27:37.498Z,13.90
2019-05-11T09:30:09.572Z,13.50
2019-05-11T09:32:41.303Z,14.30
2019-05-11T09:35:13.337Z,13.77
2019-05-11T09:37:45.127Z,13.73
2019-05-11T09:40:18.260Z,15.10
2019-05-11T09:42:50.109Z,13.87
2019-05-11T09:45:23.189Z,15.17
2019-05-11T09:47:54.923Z,14.30
2019-05-11T09:50:28.367Z,15.13
2019-05-11T09:53:00.637Z,14.20
2019-05-11T09:55:32.401Z,15.23
2019-05-11T09:58:04.142Z,14.20
2019-05-11T10:00:35.912Z,14.50
2019-05-11T10:03:08.377Z,13.73
2019-05-11T10:05:40.163Z,13.60
2019-05-11T10:08:12.058Z,12.97
2019-05-11T10:10:43.831Z,11.27
2019-05-11T10:13:15.670Z,11.70
2019-05-11T10:16:02.984Z,10.83
2019-05-11T10:18:24.140Z,11.53
2019-05-11T10:21:03.264Z,10.73
2019-05-11T10:23:35.161Z,10.50
2019-05-11T10:26:28.018Z,9.90
2019-05-11T10:29:04.883Z,11.07
2019-05-11T10:31:38.599Z,10.70
2019-05-11T10:34:10.085Z,11.30
2019-05-11T10:36:57.778Z,9.83
2019-05-11T10:39:32.104Z,9.20
2019-05-11T10:42:11.312Z,9.10
2019-05-11T10:44:53.053Z,10.70
2019-05-11T10:47:30.122Z,9.23
2019-05-11T10:50:04.423Z,10.03
2019-05-11T10:52:37.871Z,9.27
2019-05-11T10:55:10.125Z,9.70
2019-05-11T10:57:41.850Z,9.87
2019-05-11T11:00:14.697Z,9.17
2019-05-11T11:02:47.720Z,8.43
2019-05-11T11:05:20.044Z,8.43
2019-05-11T11:07:51.760Z,9.10
2019-05-11T11:10:28.613Z,8.17
2019-05-11T11:12:59.962Z,7.50
2019-05-11T11:15:38.006Z,7.10
2019-05-11T11:18:08.794Z,8.27
2019-05-11T11:20:40.644Z,7.17
2019-05-11T11:23:12.469Z,7.77
2019-05-11T11:25:48.123Z,6.40
2019-05-11T11:28:20.023Z,5.80
2019-05-11T11:30:52.428Z,5.67
2019-05-11T11:33:27.691Z,5.87
2019-05-11T11:35:59.690Z,5.67
2019-05-11T11:38:31.463Z,5.97
2019-05-11T11:41:03.502Z,5.70
2019-05-11T11:43:38.215Z,5.60
2019-05-11T11:46:11.531Z,5.40
2019-05-11T11:48:48.855Z,5.73
2019-05-11T11:51:24.596Z,5.27
2019-05-11T11:53:59.412Z,5.07
2019-05-11T11:56:32.041Z,5.43
2019-05-11T11:59:08.484Z,5.10
2019-05-11T12:01:40.555Z,5.23
2019-05-11T12:04:12.311Z,5.67
2019-05-11T12:06:46.122Z,5.20
2019-05-11T12:09:18.289Z,5.70
2019-05-11T12:11:51.615Z,8.23
2019-05-11T12:14:35.687Z,5.57
2019-05-11T12:17:11.033Z,5.40
2019-05-11T12:19:44.502Z,5.27
2019-05-11T12:22:18.949Z,5.07
2019-05-11T12:24:50.780Z,4.70
2019-05-11T12:27:22.489Z,4.50
2019-05-11T12:30:03.757Z,4.60
2019-05-11T12:32:48.706Z,4.37
2019-05-11T12:35:23.036Z,4.60
2019-05-11T12:38:00.926Z,4.37
2019-05-11T12:40:33.778Z,4.03
2019-05-11T12:43:08.164Z,3.73
2019-05-11T12:45:43.401Z,4.03
2019-05-11T12:48:15.195Z,3.47
2019-05-11T12:50:48.638Z,4.00
2019-05-11T12:53:20.387Z,4.10
2019-05-11T12:55:54.598Z,4.10
2019-05-11T12:58:28.067Z,5.00
2019-05-11T13:01:02.476Z,4.53
2019-05-11T13:03:35.107Z,4.53
2019-05-11T13:06:08.197Z,4.12
2019-05-11T13:08:40.185Z,3.72
2019-05-11T13:11:12.437Z,3.80
2019-05-11T13:13:44.221Z,4.67
2019-05-11T13:16:20.653Z,4.10
2019-05-11T13:18:57.642Z,4.65
2019-05-11T13:21:30.076Z,4.87
2019-05-11T13:24:05.246Z,4.70
2019-05-11T13:26:38.012Z,4.70
2019-05-11T13:29:10.192Z,4.77
2019-05-11T13:31:41.966Z,3.97
2019-05-11T13:34:17.902Z,4.30
2019-05-11T13:36:50.962Z,3.80
2019-05-11T13:39:23.864Z,4.33
2019-05-11T13:41:57.903Z,4.27
2019-05-11T13:44:29.483Z,4.13
2019-05-11T13:47:04.476Z,4.00
2019-05-11T13:49:41.367Z,4.10
2019-05-11T13:52:19.090Z,4.17
2019-05-11T13:54:52.899Z,3.47
2019-05-11T13:57:24.630Z,4.37
2019-05-11T13:59:58.072Z,4.10
2019-05-11T14:02:32.404Z,3.70
2019-05-11T14:05:05.778Z,3.93
2019-05-11T14:07:39.755Z,3.60
2019-05-11T14:10:11.841Z,4.50
2019-05-11T14:12:43.557Z,3.60
2019-05-11T14:15:15.277Z,3.87
2019-05-11T14:17:48.577Z,3.90
2019-05-11T14:20:20.876Z,3.80
2019-05-11T14:22:55.349Z,3.80
2019-05-11T14:25:27.919Z,3.83
2019-05-11T14:27:59.829Z,3.60
2019-05-11T14:30:31.584Z,3.90
2019-05-11T14:33:08.514Z,3.93
2019-05-11T14:35:39.345Z,3.50
2019-05-11T14:38:11.134Z,3.73
2019-05-11T14:40:44.602Z,3.80
2019-05-11T14:43:20.627Z,3.40
2019-05-11T14:45:57.854Z,3.87
2019-05-11T14:48:38.945Z,3.70
2019-05-11T14:51:13.322Z,3.80
2019-05-11T14:53:51.179Z,3.77
2019-05-11T14:56:22.973Z,4.03
2019-05-11T14:58:57.989Z,3.73
2019-05-11T15:01:32.684Z,3.90
2019-05-11T15:04:09.255Z,3.70
2019-05-11T15:06:45.055Z,3.43
2019-05-11T15:09:24.269Z,3.57
2019-05-11T15:11:59.459Z,3.47
2019-05-11T15:14:37.804Z,3.43
2019-05-11T15:17:13.225Z,3.57
2019-05-11T15:19:45.131Z,3.30
2019-05-11T15:22:18.093Z,3.60
2019-05-11T15:24:53.449Z,3.33
2019-05-11T15:27:28.943Z,3.63
2019-05-11T15:30:01.656Z,3.13
2019-05-11T15:32:34.841Z,3.70
2019-05-11T15:35:08.101Z,3.77
2019-05-11T15:37:39.977Z,3.40
2019-05-11T15:40:18.554Z,3.43
2019-05-11T15:42:50.802Z,3.27
2019-05-11T15:45:22.586Z,3.27
2019-05-11T15:47:54.356Z,3.23
2019-05-11T15:50:26.118Z,3.60
2019-05-11T15:52:58.355Z,2.93
2019-05-11T15:55:30.247Z,2.83
2019-05-11T15:58:02.122Z,2.90
2019-05-11T16:00:35.146Z,2.70
2019-05-11T16:03:08.204Z,2.20
2019-05-11T16:05:40.299Z,2.20
2019-05-11T16:08:12.137Z,1.90
2019-05-11T16:10:45.085Z,1.67
2019-05-11T16:13:18.123Z,1.77
2019-05-11T16:15:50.292Z,2.00
2019-05-11T16:18:22.018Z,2.00
2019-05-11T16:20:53.783Z,2.00
2019-05-11T16:23:25.595Z,2.13
2019-05-11T16:25:58.064Z,1.60
2019-05-11T16:28:30.913Z,1.83
2019-05-11T16:31:02.762Z,1.93
2019-05-11T16:33:34.522Z,1.63
2019-05-11T16:36:08.813Z,2.03
2019-05-11T16:38:39.650Z,1.93
2019-05-11T16:41:11.461Z,1.63
2019-05-11T16:43:43.220Z,1.90
2019-05-11T16:46:14.973Z,1.50
2019-05-11T16:48:46.739Z,1.63
2019-05-11T16:51:18.494Z,1.90
2019-05-11T16:53:50.458Z,2.00
2019-05-11T16:56:22.239Z,1.60
2019-05-11T16:58:54.870Z,1.70
2019-05-11T17:01:26.834Z,1.60
2019-05-11T17:03:58.599Z,1.90
2019-05-11T17:06:31.998Z,1.60
2019-05-11T17:09:08.895Z,1.80
2019-05-11T17:11:40.376Z,1.60
2019-05-11T17:14:12.134Z,1.47
2019-05-11T17:16:43.920Z,1.70
2019-05-11T17:19:18.234Z,1.60
2019-05-11T17:21:49.215Z,1.87
2019-05-11T17:24:20.974Z,1.60
2019-05-11T17:26:52.736Z,1.53
2019-05-11T17:29:24.517Z,1.50
2019-05-11T17:31:57.959Z,1.47
2019-05-11T17:34:29.862Z,1.50
2019-05-11T17:37:01.701Z,1.43
2019-05-11T17:39:33.555Z,1.53
2019-05-11T17:42:05.293Z,1.70
2019-05-11T17:44:37.875Z,1.80
2019-05-11T17:47:09.809Z,1.60
2019-05-11T17:49:56.032Z,1.33
2019-05-11T17:52:15.063Z,1.50
2019-05-11T17:54:47.775Z,1.43
2019-05-11T17:57:19.735Z,1.40
2019-05-11T17:59:51.456Z,1.50
2019-05-11T18:02:24.478Z,1.80
2019-05-11T18:04:58.410Z,1.53
2019-05-11T18:07:31.734Z,1.70
2019-05-11T18:10:03.538Z,1.60
2019-05-11T18:12:40.708Z,1.57
2019-05-11T18:15:12.949Z,1.30
2019-05-11T18:17:44.690Z,1.30
2019-05-11T18:20:21.622Z,1.30
2019-05-11T18:22:53.077Z,1.40
2019-05-11T18:25:28.496Z,1.30
2019-05-11T18:28:01.318Z,1.70
2019-05-11T18:30:35.493Z,1.30
2019-05-11T18:33:08.327Z,1.80
2019-05-11T18:35:40.344Z,1.50
2019-05-11T18:38:12.336Z,1.77
2019-05-11T18:40:44.275Z,1.20
2019-05-11T18:43:18.677Z,1.13
2019-05-11T18:45:49.957Z,1.47
2019-05-11T18:48:21.925Z,1.10
2019-05-11T18:50:56.262Z,1.27
2019-05-11T18:53:28.889Z,1.40
2019-05-11T18:56:03.291Z,1.20
2019-05-11T18:58:35.128Z,1.40
2019-05-11T19:01:11.581Z,1.40
2019-05-11T19:03:47.869Z,1.10
2019-05-11T19:06:24.906Z,1.50
2019-05-11T19:08:59.348Z,1.07
2019-05-11T19:11:31.139Z,1.20
2019-05-11T19:14:02.877Z,1.20
2019-05-11T19:16:34.709Z,1.37
2019-05-11T19:19:08.063Z,1.17
2019-05-11T19:21:40.060Z,1.33
2019-05-11T19:24:12.327Z,1.30
2019-05-11T19:26:44.063Z,1.30
2019-05-11T19:29:18.982Z,1.10
2019-05-11T19:31:50.897Z,1.50
2019-05-11T19:34:22.662Z,1.20
2019-05-11T19:36:57.943Z,1.23
2019-05-11T19:39:29.798Z,1.40
2019-05-11T19:42:02.004Z,1.10
2019-05-11T19:44:35.874Z,1.33
2019-05-11T19:47:08.938Z,1.30
2019-05-11T19:49:40.806Z,1.10
2019-05-11T19:52:12.580Z,1.53
2019-05-11T19:54:44.354Z,1.60
2019-05-11T19:57:18.152Z,1.57
2019-05-11T19:59:50.378Z,2.10
2019-05-11T20:02:22.567Z,1.30
2019-05-11T20:04:54.447Z,1.40
2019-05-11T20:07:26.346Z,1.40
2019-05-11T20:09:58.339Z,1.17
2019-05-11T20:12:30.122Z,1.10
2019-05-11T20:15:02.133Z,1.33
2019-05-11T20:17:33.933Z,0.90
2019-05-11T20:20:08.842Z,1.20
2019-05-11T20:22:40.809Z,1.10
2019-05-11T20:25:14.178Z,1.13
2019-05-11T20:27:48.273Z,1.37
2019-05-11T20:30:19.629Z,1.30
2019-05-11T20:32:51.482Z,1.13
2019-05-11T20:35:23.285Z,1.33
2019-05-11T20:37:55.068Z,1.23
2019-05-11T20:40:28.579Z,1.47
2019-05-11T20:43:00.606Z,1.20
2019-05-11T20:45:32.416Z,1.10
2019-05-11T20:48:07.743Z,1.43
2019-05-11T20:50:43.488Z,1.80
2019-05-11T20:53:17.429Z,1.20
2019-05-11T20:55:51.651Z,1.17
2019-05-11T20:58:23.434Z,1.27
2019-05-11T21:00:55.166Z,1.57
2019-05-11T21:03:27.672Z,1.33
2019-05-11T21:05:59.581Z,1.50
2019-05-11T21:08:31.344Z,1.27
2019-05-11T21:11:03.308Z,1.20
2019-05-11T21:13:35.164Z,1.27
2019-05-11T21:16:08.657Z,1.53
2019-05-11T21:18:40.434Z,1.40
2019-05-11T21:21:12.277Z,1.60
2019-05-11T21:23:44.076Z,1.50
2019-05-11T21:26:15.984Z,1.40
2019-05-11T21:28:48.659Z,1.60
2019-05-11T21:31:20.630Z,1.50
2019-05-11T21:33:52.366Z,1.40
2019-05-11T21:36:24.190Z,1.20
2019-05-11T21:38:58.579Z,1.40
2019-05-11T21:41:30.974Z,1.30
2019-05-11T21:44:03.079Z,1.40
2019-05-11T21:46:35.284Z,1.80
2019-05-11T21:49:07.818Z,1.67
2019-05-11T21:51:39.752Z,1.10
2019-05-11T21:54:11.675Z,1.67
2019-05-11T21:56:43.403Z,1.63
2019-05-11T21:59:15.249Z,1.33
2019-05-11T22:01:48.498Z,1.40
2019-05-11T22:04:20.653Z,1.40
2019-05-11T22:06:52.385Z,1.40
2019-05-11T22:09:24.207Z,1.50
2019-05-11T22:11:56.038Z,1.33
2019-05-11T22:14:29.932Z,1.30
2019-05-11T22:17:02.602Z,1.10
2019-05-11T22:19:34.522Z,1.27
2019-05-11T22:22:19.118Z,1.40
2019-05-11T22:24:39.766Z,1.60
2019-05-11T22:27:11.607Z,1.47
2019-05-11T22:29:43.440Z,1.67
2019-05-11T22:32:15.160Z,1.40
2019-05-11T22:34:47.940Z,1.93
2019-05-11T22:37:19.763Z,1.23
2019-05-11T22:39:51.541Z,1.50
2019-05-11T22:42:23.341Z,1.37
2019-05-11T22:44:55.079Z,2.70
2019-05-11T22:47:28.412Z,1.97
2019-05-11T22:50:00.226Z,1.20
2019-05-11T22:52:36.417Z,1.50
2019-05-11T22:55:05.477Z,2.17
2019-05-11T22:57:38.087Z,1.40
2019-05-11T23:00:11.624Z,1.37
2019-05-11T23:02:43.462Z,1.60
2019-05-11T23:05:15.395Z,1.67
2019-05-11T23:07:48.130Z,1.63
2019-05-11T23:10:19.994Z,1.40
2019-05-11T23:12:51.816Z,1.80
2019-05-11T23:15:24.632Z,1.63
2019-05-11T23:17:59.768Z,1.70
2019-05-11T23:20:30.262Z,1.33
2019-05-11T23:23:01.937Z,1.50
2019-05-11T23:25:34.458Z,1.47
2019-05-11T23:28:06.152Z,1.50
2019-05-11T23:30:38.896Z,2.00
2019-05-11T23:33:10.938Z,2.00
2019-05-11T23:35:42.696Z,1.83
2019-05-11T23:38:14.454Z,1.93
2019-05-11T23:40:48.184Z,2.00
2019-05-11T23:43:20.004Z,1.90
2019-05-11T23:45:51.708Z,1.50
2019-05-11T23:48:23.520Z,1.60
2019-05-11T23:50:55.379Z,1.53
2019-05-11T23:53:30.811Z,1.73
2019-05-11T23:56:02.837Z,2.20
2019-05-11T23:58:35.181Z,1.57
